createdAt,value
2019-03-13T00:02:45.474Z,6.37
2019-03-13T00:08:51.155Z,6.03
2019-03-13T00:14:57.035Z,5.93
2019-03-13T00:21:02.703Z,5.73
2019-03-13T00:27:08.490Z,5.30
2019-03-13T00:33:14.225Z,5.57
2019-03-13T00:39:19.956Z,5.37
2019-03-13T00:45:25.710Z,4.70
2019-03-13T00:51:31.501Z,4.77
2019-03-13T00:57:37.210Z,5.30
2019-03-13T01:03:52.855Z,4.90
2019-03-13T01:09:58.556Z,4.77
2019-03-13T01:16:04.353Z,4.60
2019-03-13T01:22:10.064Z,3.73
2019-03-13T01:28:15.791Z,2.60
2019-03-13T01:34:52.185Z,2.30
2019-03-13T01:40:57.874Z,8.13
2019-03-13T01:47:03.575Z,3.30
2019-03-13T01:53:09.314Z,3.57
2019-03-13T01:59:15.013Z,3.47
2019-03-13T02:05:20.790Z,3.47
2019-03-13T02:11:26.542Z,5.03
2019-03-13T02:17:32.342Z,4.10
2019-03-13T02:23:38.134Z,4.43
2019-03-13T02:29:43.871Z,6.20
2019-03-13T02:35:49.632Z,7.57
2019-03-13T02:41:55.337Z,8.10
2019-03-13T02:48:01.034Z,8.33
2019-03-13T02:54:06.704Z,7.17
2019-03-13T03:00:13.303Z,7.40
2019-03-13T03:06:19.086Z,4.60
2019-03-13T03:12:24.779Z,11.00
2019-03-13T03:18:30.514Z,11.97
2019-03-13T03:24:36.172Z,10.33
2019-03-13T03:30:41.998Z,12.33
2019-03-13T03:36:47.797Z,8.03
2019-03-13T03:42:53.545Z,12.47
2019-03-13T03:48:59.269Z,7.83
2019-03-13T03:55:05.548Z,10.57
2019-03-13T04:01:11.278Z,8.60
2019-03-13T04:07:17.025Z,13.53
2019-03-13T04:13:22.807Z,13.73
2019-03-13T04:19:28.616Z,8.17
2019-03-13T04:25:38.562Z,10.30
2019-03-13T04:31:44.546Z,10.07
2019-03-13T04:37:50.250Z,12.20
2019-03-13T04:43:55.955Z,12.83
2019-03-13T04:50:01.728Z,13.23
2019-03-13T04:56:07.497Z,15.50
2019-03-13T05:02:13.223Z,16.93
2019-03-13T05:09:14.455Z,10.73
2019-03-13T05:15:20.180Z,11.17
2019-03-13T05:21:26.044Z,13.10
2019-03-13T05:27:31.792Z,14.10
2019-03-13T05:33:37.479Z,9.80
2019-03-13T05:39:43.238Z,12.00
2019-03-13T05:45:48.919Z,14.00
2019-03-13T05:51:54.627Z,17.00
2019-03-13T05:58:00.417Z,15.63
2019-03-13T06:04:06.096Z,12.07
2019-03-13T06:10:11.949Z,11.13
2019-03-13T06:16:17.669Z,15.37
2019-03-13T06:22:23.419Z,14.67
2019-03-13T06:28:29.181Z,11.97
2019-03-13T06:34:34.966Z,19.13
2019-03-13T06:40:40.694Z,14.73
2019-03-13T06:46:46.450Z,12.30
2019-03-13T06:52:52.362Z,14.70
2019-03-13T06:59:13.778Z,14.67
2019-03-13T07:05:34.465Z,14.87
2019-03-13T07:11:56.680Z,11.03
2019-03-13T07:18:39.515Z,13.07
2019-03-13T07:25:07.280Z,12.27
2019-03-13T07:31:31.841Z,14.13
2019-03-13T07:37:56.568Z,11.47
2019-03-13T07:44:29.326Z,14.90
2019-03-13T07:50:57.218Z,15.10
2019-03-13T07:57:27.820Z,11.63
2019-03-13T08:03:53.867Z,15.97
2019-03-13T08:10:24.650Z,13.50
2019-03-13T08:16:44.324Z,9.00
2019-03-13T08:23:04.615Z,8.67
2019-03-13T08:29:16.854Z,7.43
2019-03-13T08:35:44.527Z,14.10
2019-03-13T08:42:12.380Z,10.40
2019-03-13T08:48:28.297Z,8.73
2019-03-13T08:54:40.374Z,7.67
2019-03-13T09:01:13.899Z,7.37
2019-03-13T09:07:40.541Z,7.60
2019-03-13T09:14:05.120Z,15.10
2019-03-13T09:20:21.135Z,12.57
2019-03-13T09:26:35.672Z,10.83
2019-03-13T09:33:09.481Z,13.07
2019-03-13T09:39:23.323Z,10.67
2019-03-13T09:45:45.494Z,13.67
2019-03-13T09:52:10.047Z,13.00
2019-03-13T09:58:29.369Z,17.03
2019-03-13T10:04:56.962Z,11.07
2019-03-13T10:11:24.694Z,9.70
2019-03-13T10:17:50.658Z,8.20
2019-03-13T10:24:03.334Z,8.73
2019-03-13T10:30:29.676Z,9.97
2019-03-13T10:37:12.321Z,5.83
2019-03-13T10:43:36.892Z,9.33
2019-03-13T10:50:04.189Z,11.80
2019-03-13T10:56:43.940Z,14.03
2019-03-13T11:03:08.500Z,6.93
2019-03-13T11:09:22.942Z,7.93
2019-03-13T11:15:45.230Z,7.83
2019-03-13T11:22:09.834Z,14.57
2019-03-13T11:28:40.000Z,6.33
2019-03-13T11:35:02.489Z,8.40
2019-03-13T11:41:21.822Z,13.10
2019-03-13T11:47:55.212Z,19.63
2019-03-13T11:54:16.817Z,6.30
2019-03-13T12:00:53.044Z,8.63
2019-03-13T12:07:17.075Z,18.57
2019-03-13T12:13:36.306Z,7.70
2019-03-13T12:20:12.838Z,10.10
2019-03-13T12:26:49.358Z,7.50
2019-03-13T12:33:10.297Z,8.80
2019-03-13T12:39:24.938Z,8.17
2019-03-13T12:45:44.547Z,12.37
2019-03-13T12:51:58.899Z,8.50
2019-03-13T12:58:23.421Z,12.13
2019-03-13T13:04:59.903Z,9.17
2019-03-13T13:11:33.397Z,9.60
2019-03-13T13:18:04.372Z,10.07
2019-03-13T13:24:10.145Z,8.30
2019-03-13T13:30:16.763Z,13.93
2019-03-13T13:36:22.734Z,5.13
2019-03-13T13:42:28.690Z,6.23
2019-03-13T13:48:34.434Z,4.33
2019-03-13T13:54:40.365Z,8.13
2019-03-13T14:00:46.110Z,9.07
2019-03-13T14:06:51.943Z,5.97
2019-03-13T14:12:57.817Z,11.73
2019-03-13T14:19:03.800Z,9.37
2019-03-13T14:25:09.678Z,11.10
2019-03-13T14:31:15.448Z,11.93
2019-03-13T14:37:21.438Z,10.37
2019-03-13T14:43:27.187Z,10.70
2019-03-13T14:49:33.016Z,11.30
2019-03-13T14:55:38.890Z,3.93
2019-03-13T15:01:44.821Z,4.43
2019-03-13T15:07:50.603Z,6.97
2019-03-13T15:13:56.386Z,8.63
2019-03-13T15:20:02.157Z,6.40
2019-03-13T15:26:07.985Z,7.33
2019-03-13T15:32:13.784Z,6.60
2019-03-13T15:38:19.717Z,8.10
2019-03-13T15:44:25.517Z,2.67
2019-03-13T15:50:31.253Z,4.83
2019-03-13T15:56:37.713Z,9.03
2019-03-13T16:02:43.674Z,10.10
2019-03-13T16:08:49.408Z,7.77
2019-03-13T16:14:55.258Z,4.80
2019-03-13T16:21:01.051Z,6.33
2019-03-13T16:27:06.935Z,6.37
2019-03-13T16:33:12.849Z,2.27
2019-03-13T16:39:18.651Z,5.47
2019-03-13T16:45:24.759Z,7.50
2019-03-13T16:51:30.540Z,5.63
2019-03-13T16:57:36.356Z,7.70
2019-03-13T17:03:42.123Z,8.53
2019-03-13T17:09:47.847Z,7.30
2019-03-13T17:15:53.750Z,9.77
2019-03-13T17:21:59.525Z,12.40
2019-03-13T17:28:05.277Z,6.67
2019-03-13T17:34:11.314Z,5.43
2019-03-13T17:40:19.621Z,6.30
2019-03-13T17:46:25.437Z,9.27
2019-03-13T17:52:31.288Z,13.17
2019-03-13T17:58:37.173Z,12.63
2019-03-13T18:04:42.966Z,17.60
2019-03-13T18:10:48.684Z,11.63
2019-03-13T18:16:54.415Z,15.47
2019-03-13T18:23:00.286Z,15.57
2019-03-13T18:29:06.165Z,11.40
2019-03-13T18:35:12.031Z,19.17
2019-03-13T18:41:17.794Z,23.67
2019-03-13T18:47:23.547Z,13.87
2019-03-13T18:53:29.284Z,18.00
2019-03-13T18:59:38.008Z,13.53
2019-03-13T19:05:42.594Z,12.40
2019-03-13T19:11:48.349Z,14.83
2019-03-13T19:17:54.206Z,13.10
2019-03-13T19:24:02.616Z,13.47
2019-03-13T19:30:16.500Z,16.20
2019-03-13T19:36:22.457Z,16.87
2019-03-13T19:42:28.346Z,18.33
2019-03-13T19:48:34.264Z,19.07
2019-03-13T19:54:40.207Z,17.50
2019-03-13T20:00:46.070Z,11.57
2019-03-13T20:06:51.927Z,9.17
2019-03-13T20:13:01.630Z,11.93
2019-03-13T20:19:17.367Z,6.50
2019-03-13T20:25:23.202Z,8.30
2019-03-13T20:31:29.865Z,11.27
2019-03-13T20:37:35.854Z,14.60
2019-03-13T20:43:41.702Z,12.33
2019-03-13T20:49:47.443Z,16.50
2019-03-13T20:55:53.208Z,17.57
2019-03-13T21:02:00.378Z,20.40
2019-03-13T21:08:06.447Z,25.23
2019-03-13T21:14:12.264Z,24.47
2019-03-13T21:20:18.910Z,24.07
2019-03-13T21:26:24.779Z,22.53
2019-03-13T21:32:30.918Z,21.63
2019-03-13T21:38:36.734Z,18.60
2019-03-13T21:44:42.504Z,18.60
2019-03-13T21:50:50.397Z,17.03
2019-03-13T21:56:55.766Z,15.93
2019-03-13T22:03:01.499Z,14.10
2019-03-13T22:09:07.945Z,13.83
2019-03-13T22:15:14.896Z,11.77
2019-03-13T22:21:20.779Z,12.70
2019-03-13T22:27:26.633Z,10.80
2019-03-13T22:33:32.337Z,9.87
2019-03-13T22:39:38.175Z,9.03
2019-03-13T22:45:44.005Z,8.37
2019-03-13T22:51:49.748Z,7.10
2019-03-13T22:57:55.460Z,9.73
2019-03-13T23:04:01.207Z,7.57
2019-03-13T23:10:25.951Z,6.83
2019-03-13T23:16:34.064Z,10.97
2019-03-13T23:22:39.073Z,4.90
2019-03-13T23:28:45.254Z,5.50
2019-03-13T23:34:50.972Z,6.27
2019-03-13T23:40:56.692Z,9.30
2019-03-13T23:47:02.396Z,7.97
2019-03-13T23:53:08.171Z,5.73
2019-03-13T23:59:13.901Z,5.70
